Strona główna
METAR-TAF:

METAR-TAF

Lotnisko :

Hrabstwo Ocean, New Jersey, Stany Zjednoczone

Szerokość geograficzna: 39-55-39N, Długość geograficzna: 074-17-33W, wysokość: 25 m

Aktualna obserwacja pogody

Raport powstał 22 minut temu, godzina 21:56 UTC
Wiatr 4 kt od zachodnio-południowy zachód
Temperatura 6°C
Wilgotność 61%
Ciśnienie 1009 hPa
Widzialność: 16.1 km
Przerywane chmury na wysokości 5500 ft

METAR: KMJX 262156Z AUTO 25004KT 10SM BKN055 06/M01 A2981 RMK AO2 SLPNO T00611011

czas: 17:18 (22:18 UTC)


TAF: brakujący

Obserwacja i prognoza pogody dla ponad 4000 lotnisk (raport METAR i TAF).

Dostępne stacje oznaczono żółtymi i czerwonymi punktami na mapie.

Najedź kursorem aby zobaczyć nazwę stacji.

Kliknij aby zobaczyć obserwacje i prognozy pogody.

Aby zmienić mapę: kliknij na zielony przycisk z czarnym krzyżykiem, aby powiększyć; na zielony przycisk z myślnikiem, aby pomniejszyć; na zielone strzałki, aby przejść do map sąsiednich.


METAR-TAF: